createdAt,value
2023-01-27T01:18:18.556Z,513.00
2023-01-27T01:19:18.552Z,516.00
2023-01-27T01:20:18.624Z,516.00
2023-01-27T01:21:18.668Z,518.00
2023-01-27T01:22:18.670Z,515.00
2023-01-27T01:23:18.711Z,516.00
2023-01-27T01:24:18.875Z,516.00
2023-01-27T01:25:18.786Z,514.00
2023-01-27T01:26:18.823Z,516.00
2023-01-27T01:27:18.839Z,517.00
2023-01-27T01:28:18.897Z,516.00
2023-01-27T01:29:18.951Z,515.00
2023-01-27T01:30:18.961Z,513.00
2023-01-27T01:31:19.076Z,516.00
2023-01-27T01:32:19.083Z,511.00
2023-01-27T01:33:19.092Z,517.00
2023-01-27T01:34:19.108Z,514.00
2023-01-27T01:35:19.147Z,512.00
2023-01-27T01:36:19.180Z,517.00
2023-01-27T01:37:19.213Z,514.00
2023-01-27T01:38:19.243Z,516.00
2023-01-27T01:39:19.333Z,514.00
2023-01-27T01:40:19.287Z,512.00
2023-01-27T01:41:19.376Z,515.00
2023-01-27T01:42:19.386Z,515.00
2023-01-27T01:43:19.456Z,516.00
2023-01-27T01:44:19.462Z,514.00
2023-01-27T01:45:19.506Z,512.00
2023-01-27T01:46:19.547Z,513.00
2023-01-27T01:47:19.578Z,512.00
2023-01-27T01:48:19.631Z,509.00
2023-01-27T01:49:19.653Z,511.00
2023-01-27T01:50:19.707Z,509.00
2023-01-27T01:51:19.749Z,510.00
2023-01-27T01:52:19.782Z,509.00
2023-01-27T01:53:19.824Z,511.00
2023-01-27T01:54:19.867Z,515.00
2023-01-27T01:55:19.889Z,512.00
2023-01-27T01:56:19.916Z,512.00
2023-01-27T01:57:22.907Z,513.00
2023-01-27T01:58:19.975Z,516.00
2023-01-27T01:59:19.986Z,511.00
2023-01-27T02:00:19.956Z,510.00
2023-01-27T02:01:19.998Z,508.00
2023-01-27T02:02:21.932Z,512.00
2023-01-27T02:03:20.160Z,512.00
2023-01-27T02:04:20.206Z,512.00
2023-01-27T02:05:20.221Z,512.00
2023-01-27T02:06:20.249Z,512.00
2023-01-27T02:07:20.260Z,514.00
2023-01-27T02:08:20.353Z,514.00
2023-01-27T02:09:20.393Z,511.00
2023-01-27T02:10:20.422Z,514.00
2023-01-27T02:11:20.447Z,511.00
2023-01-27T02:12:20.484Z,513.00
2023-01-27T02:13:20.515Z,511.00
2023-01-27T02:14:20.549Z,514.00
2023-01-27T02:15:20.608Z,511.00
2023-01-27T02:16:20.664Z,512.00
2023-01-27T02:17:20.665Z,511.00
2023-01-27T02:18:20.708Z,514.00
2023-01-27T02:19:20.750Z,516.00
2023-01-27T02:20:20.761Z,516.00
2023-01-27T02:21:20.839Z,511.00
2023-01-27T02:22:20.857Z,513.00
2023-01-27T02:23:20.922Z,510.00
2023-01-27T02:24:21.003Z,514.00
2023-01-27T02:25:21.001Z,510.00
2023-01-27T02:26:21.010Z,512.00
2023-01-27T02:27:21.052Z,514.00
2023-01-27T02:28:21.097Z,515.00
2023-01-27T02:29:21.176Z,513.00
2023-01-27T02:30:21.143Z,511.00
2023-01-27T02:31:21.287Z,509.00
2023-01-27T02:32:21.176Z,509.00
2023-01-27T02:33:21.239Z,510.00
2023-01-27T02:34:21.282Z,511.00
2023-01-27T02:35:21.362Z,510.00
2023-01-27T02:36:21.352Z,513.00
2023-01-27T02:37:21.412Z,514.00
2023-01-27T02:38:21.427Z,511.00
2023-01-27T02:39:21.501Z,509.00
2023-01-27T02:40:21.545Z,513.00
2023-01-27T02:41:22.561Z,514.00
2023-01-27T02:42:21.651Z,508.00
2023-01-27T02:43:21.633Z,512.00
2023-01-27T02:44:21.712Z,510.00
2023-01-27T02:45:21.743Z,508.00
2023-01-27T02:46:21.813Z,511.00
2023-01-27T02:47:21.776Z,509.00
2023-01-27T02:48:21.849Z,507.00
2023-01-27T02:49:21.876Z,510.00
2023-01-27T02:50:21.893Z,508.00
2023-01-27T02:51:21.936Z,511.00
2023-01-27T02:52:21.976Z,511.00
2023-01-27T02:53:21.998Z,512.00
2023-01-27T02:54:22.027Z,514.00
2023-01-27T02:55:22.084Z,515.00
2023-01-27T02:56:22.097Z,508.00
2023-01-27T02:57:22.139Z,513.00
2023-01-27T02:58:22.185Z,511.00
2023-01-27T02:59:22.236Z,515.00
2023-01-27T03:00:22.255Z,516.00
2023-01-27T03:01:22.280Z,513.00
2023-01-27T03:02:22.373Z,515.00
2023-01-27T03:30:23.296Z,563.00
2023-01-27T03:31:23.344Z,556.00
2023-01-27T03:32:23.326Z,556.00
2023-01-27T03:33:23.359Z,557.00
2023-01-27T03:34:23.374Z,559.00
2023-01-27T03:35:23.432Z,560.00
2023-01-27T03:36:23.404Z,566.00
2023-01-27T03:37:23.441Z,558.00
2023-01-27T03:38:23.446Z,563.00
2023-01-27T03:39:23.505Z,564.00
2023-01-27T03:40:23.509Z,562.00
2023-01-27T03:41:23.538Z,562.00
2023-01-27T03:42:23.567Z,562.00
2023-01-27T03:43:23.579Z,562.00
2023-01-27T03:44:23.578Z,566.00
2023-01-27T03:45:23.617Z,562.00
2023-01-27T03:46:23.660Z,568.00
2023-01-27T03:47:23.613Z,571.00
2023-01-27T03:48:23.665Z,572.00
2023-01-27T03:49:23.695Z,570.00
2023-01-27T03:50:23.693Z,572.00
2023-01-27T03:51:23.701Z,572.00
2023-01-27T03:52:23.660Z,567.00
2023-01-27T03:53:23.711Z,570.00
2023-01-27T03:54:23.697Z,573.00
2023-01-27T03:55:23.746Z,566.00
2023-01-27T03:56:23.729Z,571.00
2023-01-27T03:57:23.758Z,565.00
2023-01-27T03:58:23.755Z,574.00
2023-01-27T03:59:23.817Z,568.00
2023-01-27T04:00:23.768Z,576.00
2023-01-27T04:01:23.858Z,570.00
2023-01-27T04:02:23.855Z,572.00
2023-01-27T04:03:23.844Z,571.00
2023-01-27T04:04:23.826Z,569.00
2023-01-27T04:05:23.817Z,574.00
2023-01-27T04:06:23.835Z,577.00
2023-01-27T04:07:23.843Z,576.00
2023-01-27T04:08:23.865Z,571.00
2023-01-27T04:09:23.836Z,576.00
2023-01-27T04:10:23.884Z,574.00
2023-01-27T04:11:23.889Z,577.00
2023-01-27T04:12:23.926Z,576.00
2023-01-27T04:13:23.915Z,580.00
2023-01-27T04:14:23.952Z,580.00
2023-01-27T04:15:23.950Z,576.00
2023-01-27T04:16:23.996Z,577.00
2023-01-27T04:17:24.031Z,584.00
2023-01-27T04:18:24.015Z,583.00
2023-01-27T04:19:24.072Z,577.00
2023-01-27T04:20:24.082Z,575.00
2023-01-27T04:21:24.101Z,579.00
2023-01-27T04:22:24.140Z,572.00
2023-01-27T04:23:24.150Z,574.00
2023-01-27T04:24:24.217Z,580.00
2023-01-27T04:25:24.171Z,580.00
2023-01-27T04:26:24.185Z,580.00
2023-01-27T04:27:24.236Z,579.00
2023-01-27T04:28:41.668Z,576.00
2023-01-27T04:29:25.232Z,576.00
2023-01-27T04:30:24.249Z,578.00
2023-01-27T04:31:24.268Z,579.00
2023-01-27T04:32:24.240Z,580.00
2023-01-27T04:33:24.159Z,581.00
2023-01-27T04:34:24.174Z,581.00
2023-01-27T04:35:27.845Z,579.00
2023-01-27T04:36:25.144Z,580.00
2023-01-27T04:37:24.137Z,580.00
2023-01-27T04:38:24.137Z,582.00
2023-01-27T04:39:24.078Z,582.00
2023-01-27T04:40:24.100Z,581.00
2023-01-27T04:41:24.070Z,584.00
2023-01-27T04:42:24.056Z,583.00
2023-01-27T04:43:24.076Z,582.00
2023-01-27T04:44:24.037Z,582.00
2023-01-27T04:45:24.023Z,584.00
2023-01-27T04:46:23.997Z,582.00
2023-01-27T04:47:24.023Z,576.00
2023-01-27T04:48:24.035Z,574.00
2023-01-27T04:49:24.028Z,577.00
2023-01-27T04:50:24.054Z,571.00
2023-01-27T04:51:24.067Z,574.00
2023-01-27T04:52:24.064Z,583.00
2023-01-27T04:53:24.070Z,577.00
2023-01-27T04:54:24.054Z,578.00
2023-01-27T04:55:24.093Z,575.00
2023-01-27T04:56:24.124Z,574.00
2023-01-27T04:57:24.151Z,575.00
2023-01-27T04:58:24.237Z,578.00
2023-01-27T04:59:24.235Z,571.00
2023-01-27T05:00:24.305Z,575.00
2023-01-27T05:01:24.316Z,571.00
2023-01-27T05:02:24.368Z,583.00
2023-01-27T05:03:24.369Z,568.00
2023-01-27T05:04:24.377Z,577.00
2023-01-27T05:05:24.628Z,572.00
2023-01-27T05:06:24.389Z,575.00
2023-01-27T05:07:24.450Z,575.00
2023-01-27T05:08:24.453Z,571.00
2023-01-27T05:09:24.457Z,575.00
2023-01-27T05:10:24.460Z,569.00
2023-01-27T05:11:24.493Z,573.00
2023-01-27T05:12:24.519Z,569.00
2023-01-27T05:13:24.571Z,569.00
2023-01-27T05:14:24.510Z,571.00
2023-01-27T05:15:24.714Z,569.00
2023-01-27T05:16:24.615Z,574.00
2023-01-27T05:17:24.534Z,575.00
2023-01-27T05:18:24.574Z,568.00
2023-01-27T05:19:24.572Z,562.00
2023-01-27T05:20:24.604Z,569.00
2023-01-27T05:21:24.586Z,563.00
2023-01-27T05:22:24.569Z,568.00
2023-01-27T05:23:24.612Z,567.00
2023-01-27T05:24:24.660Z,568.00
2023-01-27T05:25:24.624Z,569.00
2023-01-27T05:26:24.672Z,565.00
2023-01-27T05:27:24.634Z,570.00
2023-01-27T05:28:24.669Z,568.00
2023-01-27T05:29:24.654Z,561.00
2023-01-27T05:30:24.673Z,563.00
2023-01-27T05:31:24.748Z,572.00
2023-01-27T05:32:24.704Z,571.00
2023-01-27T05:33:24.650Z,567.00
2023-01-27T05:34:24.673Z,560.00
2023-01-27T05:35:24.719Z,565.00
2023-01-27T05:36:24.665Z,563.00
2023-01-27T05:37:24.706Z,564.00
2023-01-27T05:38:24.679Z,570.00
2023-01-27T05:39:24.713Z,565.00
2023-01-27T05:40:24.729Z,569.00
2023-01-27T05:41:24.735Z,567.00
2023-01-27T05:42:24.733Z,566.00
2023-01-27T05:43:24.703Z,565.00
2023-01-27T05:44:24.720Z,561.00
2023-01-27T05:45:24.770Z,559.00
2023-01-27T05:46:24.778Z,565.00
2023-01-27T05:47:24.764Z,559.00
2023-01-27T05:48:24.745Z,563.00
2023-01-27T05:49:24.757Z,570.00
2023-01-27T05:50:24.785Z,572.00
2023-01-27T05:51:24.796Z,569.00
2023-01-27T06:00:33.689Z,566.00
2023-01-27T06:01:24.831Z,566.00
2023-01-27T06:46:31.777Z,2787.00
2023-01-27T07:03:24.007Z,2207.00
2023-01-27T07:04:23.991Z,2200.00
2023-01-27T07:29:23.667Z,1612.00
2023-01-27T07:30:23.675Z,1616.00
2023-01-27T07:31:23.758Z,1583.00
2023-01-27T07:33:23.584Z,1568.00
2023-01-27T07:34:23.647Z,1538.00
2023-01-27T07:36:23.744Z,1521.00
2023-01-27T07:38:23.540Z,1523.00
2023-01-27T07:40:23.521Z,1485.00
2023-01-27T07:41:24.235Z,1459.00
2023-01-27T07:42:23.484Z,1455.00
2023-01-27T07:43:23.443Z,1448.00
2023-01-27T09:25:25.317Z,564.00
2023-01-27T09:26:25.387Z,556.00
2023-01-27T09:27:38.188Z,550.00
2023-01-27T09:28:26.364Z,551.00
2023-01-27T09:29:25.374Z,562.00
2023-01-27T09:30:25.339Z,566.00
2023-01-27T09:31:25.429Z,567.00
2023-01-27T09:32:25.340Z,567.00
2023-01-27T09:36:25.608Z,552.00
2023-01-27T09:37:27.816Z,546.00
2023-01-27T11:23:25.388Z,518.00
2023-01-27T11:24:25.428Z,514.00
2023-01-27T11:25:25.491Z,514.00
2023-01-27T11:26:25.478Z,526.00
2023-01-27T11:27:25.518Z,525.00
2023-01-27T11:28:25.540Z,515.00
2023-01-27T11:29:25.572Z,512.00
2023-01-27T11:30:25.644Z,547.00
2023-01-27T11:31:25.735Z,532.00
2023-01-27T11:32:25.800Z,505.00
2023-01-27T11:33:25.706Z,524.00
2023-01-27T11:34:25.738Z,524.00
2023-01-27T11:35:25.772Z,502.00
2023-01-27T11:36:25.840Z,509.00
2023-01-27T11:37:26.321Z,507.00
2023-01-27T11:38:25.883Z,509.00
2023-01-27T11:39:25.949Z,516.00
2023-01-27T11:40:25.965Z,520.00
2023-01-27T11:41:26.008Z,511.00
2023-01-27T11:42:26.047Z,515.00
2023-01-27T11:43:26.054Z,520.00
2023-01-27T11:44:26.084Z,522.00
2023-01-27T11:45:26.098Z,537.00
2023-01-27T11:46:26.108Z,532.00
2023-01-27T11:47:26.147Z,534.00
2023-01-27T11:48:26.197Z,538.00
2023-01-27T11:49:26.167Z,546.00
2023-01-27T11:50:26.210Z,544.00
2023-01-27T11:51:26.202Z,537.00
2023-01-27T11:52:26.220Z,540.00
2023-01-27T11:53:26.193Z,543.00
2023-01-27T11:54:26.298Z,548.00
2023-01-27T11:55:26.289Z,553.00
2023-01-27T11:56:26.189Z,555.00
2023-01-27T11:57:26.300Z,549.00
2023-01-27T11:58:26.241Z,553.00
2023-01-27T11:59:26.297Z,558.00
2023-01-27T12:00:26.272Z,547.00
2023-01-27T12:01:26.828Z,563.00
2023-01-27T12:02:26.293Z,560.00
2023-01-27T12:03:26.358Z,555.00
2023-01-27T12:04:26.311Z,550.00
2023-01-27T12:05:26.340Z,544.00
2023-01-27T12:06:26.374Z,556.00
2023-01-27T12:07:26.359Z,557.00
2023-01-27T12:08:26.343Z,546.00
2023-01-27T12:09:26.366Z,554.00
2023-01-27T12:10:26.382Z,556.00
2023-01-27T12:11:26.373Z,550.00
2023-01-27T12:12:26.375Z,560.00
2023-01-27T12:13:26.393Z,557.00
2023-01-27T12:14:26.388Z,555.00
2023-01-27T12:15:26.412Z,550.00
2023-01-27T12:16:26.391Z,563.00
2023-01-27T12:17:26.441Z,566.00
2023-01-27T12:18:26.441Z,562.00
2023-01-27T12:19:26.425Z,562.00
2023-01-27T12:20:26.473Z,556.00
2023-01-27T12:21:26.453Z,568.00
2023-01-27T12:22:26.835Z,562.00
2023-01-27T12:23:26.461Z,562.00
2023-01-27T12:24:26.517Z,560.00
2023-01-27T12:25:26.475Z,558.00
2023-01-27T12:26:26.513Z,565.00
2023-01-27T12:27:26.508Z,559.00
2023-01-27T12:28:26.830Z,564.00
2023-01-27T12:29:26.487Z,569.00
2023-01-27T12:30:26.501Z,554.00
2023-01-27T12:31:26.634Z,565.00
2023-01-27T12:32:26.519Z,564.00
2023-01-27T12:33:26.512Z,564.00
2023-01-27T12:34:26.508Z,566.00
2023-01-27T12:35:26.500Z,551.00
2023-01-27T12:36:29.192Z,562.00
2023-01-27T12:37:26.496Z,568.00
2023-01-27T12:38:26.444Z,560.00
2023-01-27T12:39:26.433Z,565.00
2023-01-27T12:40:26.406Z,577.00
2023-01-27T12:41:26.391Z,559.00
2023-01-27T12:42:26.344Z,557.00
2023-01-27T12:43:26.311Z,561.00
2023-01-27T12:44:26.296Z,564.00
2023-01-27T12:45:26.266Z,555.00
2023-01-27T12:46:26.310Z,567.00
2023-01-27T12:47:26.199Z,563.00
2023-01-27T12:48:26.316Z,565.00
2023-01-27T12:49:26.162Z,571.00
2023-01-27T12:50:26.169Z,565.00
2023-01-27T12:51:26.124Z,554.00
2023-01-27T12:52:26.101Z,564.00
2023-01-27T12:53:27.187Z,563.00
2023-01-27T12:54:26.071Z,564.00
2023-01-27T12:55:26.020Z,554.00
2023-01-27T12:56:26.012Z,568.00
2023-01-27T12:57:25.962Z,556.00
2023-01-27T12:58:25.980Z,558.00
2023-01-27T12:59:25.929Z,555.00
2023-01-27T13:00:25.884Z,564.00
2023-01-27T13:01:25.905Z,551.00
2023-01-27T13:02:25.881Z,551.00
2023-01-27T13:03:25.969Z,556.00
2023-01-27T13:04:25.849Z,551.00
2023-01-27T13:05:25.821Z,562.00
2023-01-27T13:06:25.784Z,557.00
2023-01-27T13:07:25.826Z,555.00
2023-01-27T13:08:25.809Z,567.00
2023-01-27T13:09:25.750Z,550.00
2023-01-27T13:10:25.769Z,561.00
2023-01-27T13:11:25.717Z,528.00
2023-01-27T13:12:25.702Z,7773.00
2023-01-27T13:13:25.674Z,6905.00
2023-01-27T13:14:25.706Z,6651.00
2023-01-27T13:15:25.644Z,5545.00
2023-01-27T13:16:25.672Z,4993.00
2023-01-27T13:17:25.631Z,4545.00
2023-01-27T13:18:25.606Z,4277.00
2023-01-27T13:19:25.608Z,4088.00
2023-01-27T13:20:25.563Z,3981.00
2023-01-27T13:21:25.565Z,3854.00
2023-01-27T13:22:25.525Z,3726.00
2023-01-27T13:23:25.526Z,3583.00
2023-01-27T13:24:25.556Z,3515.00
2023-01-27T13:25:25.536Z,3468.00
2023-01-27T13:26:25.624Z,3358.00
2023-01-27T13:27:25.605Z,3326.00
2023-01-27T13:28:25.645Z,3266.00
2023-01-27T13:29:25.670Z,3172.00
2023-01-27T13:30:25.685Z,3156.00
2023-01-27T13:31:25.670Z,3074.00
2023-01-27T13:32:25.700Z,3072.00
2023-01-27T13:33:25.702Z,3034.00
2023-01-27T13:34:25.688Z,2984.00
2023-01-27T13:35:25.714Z,2979.00
2023-01-27T13:36:25.693Z,2894.00
2023-01-27T13:37:25.658Z,2862.00
2023-01-27T13:38:25.723Z,2834.00
2023-01-27T13:39:25.679Z,2819.00
2023-01-27T13:40:25.751Z,2800.00
2023-01-27T13:41:25.736Z,2773.00
2023-01-27T13:42:25.715Z,2729.00
2023-01-27T13:43:25.746Z,2727.00
2023-01-27T13:44:25.724Z,2713.00
2023-01-27T13:45:25.741Z,2641.00
2023-01-27T13:46:25.847Z,2631.00
2023-01-27T13:47:25.773Z,2571.00
2023-01-27T13:48:25.797Z,2565.00
2023-01-27T13:49:25.803Z,2552.00
2023-01-27T13:50:25.836Z,2536.00
2023-01-27T13:51:25.848Z,2496.00
2023-01-27T13:52:25.867Z,2469.00
2023-01-27T13:53:25.882Z,2449.00
2023-01-27T13:54:25.860Z,2441.00
2023-01-27T13:55:25.904Z,2431.00
2023-01-27T13:56:25.925Z,2397.00
2023-01-27T13:57:25.913Z,2359.00
2023-01-27T13:58:25.917Z,2346.00
2023-01-27T13:59:25.921Z,2330.00
2023-01-27T14:00:25.936Z,2328.00
2023-01-27T14:01:26.031Z,2281.00
2023-01-27T14:02:25.954Z,2286.00
2023-01-27T14:03:26.022Z,2250.00
2023-01-27T14:04:26.032Z,2253.00
2023-01-27T14:05:26.027Z,2244.00
2023-01-27T14:06:26.022Z,2201.00
2023-01-27T14:07:26.039Z,2181.00
2023-01-27T14:08:26.087Z,2173.00
2023-01-27T14:09:26.083Z,2156.00
2023-01-27T14:10:26.096Z,2126.00
2023-01-27T14:11:26.134Z,2110.00
2023-01-27T14:12:26.130Z,2087.00
2023-01-27T14:13:26.150Z,2070.00
2023-01-27T14:14:26.143Z,2040.00
2023-01-27T14:15:26.189Z,2044.00
2023-01-27T14:16:26.194Z,2021.00
2023-01-27T14:17:26.185Z,2036.00
2023-01-27T14:18:26.218Z,2012.00
2023-01-27T14:19:26.211Z,1996.00
2023-01-27T14:20:26.231Z,1993.00
2023-01-27T14:21:40.141Z,1969.00
2023-01-27T14:22:27.198Z,1925.00
2023-01-27T14:23:26.214Z,1928.00
2023-01-27T14:24:26.245Z,1899.00
2023-01-27T14:25:26.156Z,1913.00
2023-01-27T14:26:26.116Z,1899.00
2023-01-27T14:27:26.093Z,1878.00
2023-01-27T14:28:26.104Z,1840.00
2023-01-27T14:29:26.075Z,1835.00
2023-01-27T14:30:26.104Z,1809.00
2023-01-27T14:31:26.090Z,1826.00
2023-01-27T14:32:26.033Z,1806.00
2023-01-27T14:33:25.995Z,1792.00
2023-01-27T14:34:26.030Z,1768.00
2023-01-27T14:35:25.949Z,1759.00
2023-01-27T14:36:25.999Z,1720.00
2023-01-27T14:37:25.990Z,1717.00
2023-01-27T14:38:25.993Z,1729.00
2023-01-27T14:39:26.010Z,1716.00
2023-01-27T14:40:26.016Z,1668.00
2023-01-27T14:41:26.004Z,1646.00
2023-01-27T14:42:26.041Z,1667.00
2023-01-27T14:43:26.080Z,1651.00
2023-01-27T14:44:33.772Z,1648.00
2023-01-27T14:45:27.059Z,1645.00
2023-01-27T14:46:26.045Z,1635.00
2023-01-27T14:47:25.995Z,1561.00
2023-01-27T14:48:25.997Z,1583.00
2023-01-27T14:49:25.963Z,1576.00
2023-01-27T14:50:25.999Z,1579.00
2023-01-27T14:51:25.980Z,1561.00
2023-01-27T14:52:25.950Z,1542.00
2023-01-27T14:53:25.954Z,1510.00
2023-01-27T14:54:25.929Z,1507.00
2023-01-27T14:55:25.904Z,1525.00
2023-01-27T14:56:25.953Z,1494.00
2023-01-27T14:57:25.865Z,1497.00
2023-01-27T14:58:25.838Z,1478.00
2023-01-27T14:59:25.883Z,1460.00
2023-01-27T15:00:25.792Z,1444.00
2023-01-27T15:01:25.805Z,1451.00
2023-01-27T15:02:25.795Z,1397.00
2023-01-27T15:03:25.864Z,1419.00
2023-01-27T15:04:25.871Z,1412.00
2023-01-27T15:05:25.919Z,1396.00
2023-01-27T15:06:25.925Z,1376.00
2023-01-27T15:07:25.947Z,1330.00
2023-01-27T15:08:25.933Z,1377.00
2023-01-27T15:09:25.942Z,1344.00
2023-01-27T15:10:25.949Z,1342.00
2023-01-27T15:11:25.988Z,1323.00
2023-01-27T15:12:26.000Z,1314.00
2023-01-27T15:13:26.040Z,1306.00
2023-01-27T15:14:26.043Z,1305.00
2023-01-27T15:15:26.054Z,1285.00
2023-01-27T15:16:26.106Z,1284.00
2023-01-27T15:18:26.069Z,1254.00
2023-01-27T15:19:26.087Z,1247.00
2023-01-27T15:20:26.099Z,1253.00
2023-01-27T15:21:26.092Z,1220.00
2023-01-27T15:22:26.124Z,1224.00
2023-01-27T15:23:26.173Z,1209.00
2023-01-27T15:24:26.263Z,1211.00
2023-01-27T15:25:26.290Z,1190.00
2023-01-27T15:26:26.296Z,1176.00
2023-01-27T15:27:26.339Z,1175.00
2023-01-27T15:28:26.358Z,1181.00
2023-01-27T15:29:26.396Z,1152.00
2023-01-27T15:30:26.403Z,1167.00
2023-01-27T15:31:26.539Z,1140.00
2023-01-27T15:32:26.654Z,1132.00
2023-01-27T15:33:26.410Z,1120.00
2023-01-27T15:34:26.417Z,1095.00
2023-01-27T15:35:26.416Z,1122.00
2023-01-27T15:36:26.428Z,1101.00
2023-01-27T15:37:26.437Z,1099.00
2023-01-27T15:38:26.424Z,1082.00
2023-01-27T15:43:26.454Z,1030.00
2023-01-27T15:44:26.457Z,1039.00
2023-01-27T15:45:26.608Z,1024.00
2023-01-27T15:46:26.474Z,994.00
2023-01-27T15:47:26.461Z,971.00
2023-01-27T15:48:26.503Z,958.00
2023-01-27T16:05:26.667Z,838.00
2023-01-27T16:06:26.694Z,818.00
2023-01-27T16:07:26.692Z,825.00
2023-01-27T16:08:26.721Z,808.00
2023-01-27T16:09:26.713Z,797.00
2023-01-27T16:10:26.718Z,791.00
2023-01-27T16:11:26.739Z,792.00
2023-01-27T16:12:26.744Z,781.00
2023-01-27T16:13:26.749Z,760.00
2023-01-27T16:14:26.799Z,789.00
2023-01-27T16:15:26.805Z,769.00
2023-01-27T16:16:26.853Z,747.00
2023-01-27T16:17:26.845Z,772.00
2023-01-27T16:18:26.848Z,751.00
2023-01-27T16:19:26.863Z,740.00
2023-01-27T16:20:26.901Z,750.00
2023-01-27T16:21:26.902Z,729.00
2023-01-27T16:22:26.903Z,736.00
2023-01-27T16:23:26.924Z,717.00
2023-01-27T16:24:26.971Z,697.00
2023-01-27T16:25:26.968Z,696.00
2023-01-27T16:26:29.925Z,673.00
2023-01-27T16:27:26.988Z,687.00
2023-01-27T16:28:27.018Z,670.00
2023-01-27T16:29:26.972Z,684.00
2023-01-27T16:30:26.977Z,666.00
2023-01-27T16:31:26.971Z,659.00
2023-01-27T16:32:26.913Z,651.00
2023-01-27T16:33:26.897Z,653.00
2023-01-27T16:34:26.898Z,645.00
2023-01-27T16:35:26.893Z,650.00
2023-01-27T16:36:26.894Z,642.00
2023-01-27T16:37:26.854Z,639.00
2023-01-27T16:38:26.849Z,640.00
2023-01-27T16:39:26.822Z,646.00
2023-01-27T16:40:26.824Z,648.00
2023-01-27T16:41:26.793Z,638.00
2023-01-27T16:42:26.843Z,633.00
2023-01-27T16:43:26.777Z,636.00
2023-01-27T16:44:26.789Z,629.00
2023-01-27T16:45:26.772Z,636.00
2023-01-27T16:46:26.812Z,626.00
2023-01-27T16:47:26.738Z,632.00
2023-01-27T16:48:26.747Z,623.00
2023-01-27T16:49:26.719Z,624.00
2023-01-27T16:50:26.726Z,624.00
2023-01-27T16:51:26.696Z,627.00
2023-01-27T16:52:40.387Z,621.00
2023-01-27T16:53:27.665Z,621.00
2023-01-27T16:54:26.673Z,620.00
2023-01-27T16:55:26.655Z,617.00
2023-01-27T16:56:26.669Z,618.00
2023-01-27T16:57:26.645Z,615.00
2023-01-27T16:58:39.904Z,619.00
2023-01-27T16:59:27.631Z,619.00
2023-01-27T17:00:26.626Z,617.00
2023-01-27T17:01:26.621Z,617.00
2023-01-27T17:02:26.604Z,622.00
2023-01-27T17:03:26.635Z,613.00
2023-01-27T17:04:26.546Z,617.00
2023-01-27T17:05:26.574Z,611.00
2023-01-27T17:06:26.577Z,613.00
2023-01-27T17:07:26.569Z,620.00
2023-01-27T17:08:26.591Z,617.00
2023-01-27T17:09:26.581Z,618.00
2023-01-27T17:10:34.360Z,614.00
2023-01-27T17:11:27.557Z,613.00
2023-01-27T17:12:26.551Z,615.00
2023-01-27T17:13:26.523Z,616.00
2023-01-27T17:14:30.809Z,614.00
2023-01-27T17:15:26.499Z,614.00
2023-01-27T17:16:26.570Z,615.00
2023-01-27T17:17:26.503Z,616.00
2023-01-27T17:18:26.458Z,617.00
2023-01-27T17:19:26.447Z,616.00
2023-01-27T17:20:26.480Z,614.00
2023-01-27T17:21:26.440Z,601.00
2023-01-27T17:22:26.432Z,610.00
2023-01-27T17:23:26.538Z,607.00
2023-01-27T17:24:26.498Z,604.00
2023-01-27T17:25:26.448Z,607.00
2023-01-27T17:26:26.417Z,597.00
2023-01-27T17:27:26.393Z,605.00
2023-01-27T17:28:26.416Z,593.00
2023-01-27T17:29:26.384Z,590.00
2023-01-27T17:30:26.380Z,591.00
2023-01-27T17:31:26.445Z,595.00
2023-01-27T17:32:26.364Z,594.00
2023-01-27T17:33:26.360Z,591.00
2023-01-27T17:34:26.341Z,582.00
2023-01-27T17:35:26.383Z,577.00
2023-01-27T17:36:26.380Z,581.00
2023-01-27T17:37:26.427Z,586.00
2023-01-27T17:38:26.498Z,582.00
2023-01-27T17:39:26.474Z,579.00
2023-01-27T17:40:26.540Z,573.00
2023-01-27T17:41:26.529Z,577.00
2023-01-27T17:42:26.562Z,578.00
2023-01-27T17:43:26.635Z,576.00
2023-01-27T17:44:26.669Z,581.00
2023-01-27T17:45:26.699Z,573.00
2023-01-27T17:46:26.736Z,568.00
2023-01-27T17:47:26.741Z,567.00
2023-01-27T17:48:26.755Z,571.00
2023-01-27T17:49:26.785Z,563.00
2023-01-27T17:50:27.122Z,570.00
2023-01-27T17:51:26.835Z,564.00
2023-01-27T17:52:26.833Z,566.00
2023-01-27T17:53:26.853Z,563.00
2023-01-27T17:54:26.888Z,556.00
2023-01-27T17:55:26.939Z,562.00
2023-01-27T17:56:26.960Z,559.00
2023-01-27T17:57:26.998Z,553.00
2023-01-27T17:58:27.041Z,559.00
2023-01-27T17:59:27.038Z,557.00
2023-01-27T18:00:27.081Z,558.00
2023-01-27T18:01:27.218Z,556.00
2023-01-27T18:02:27.212Z,547.00
2023-01-27T18:03:27.179Z,543.00
2023-01-27T18:04:27.265Z,548.00
2023-01-27T18:05:27.253Z,547.00
2023-01-27T18:06:27.301Z,546.00
2023-01-27T18:07:27.348Z,549.00
2023-01-27T21:47:35.329Z,504.00
2023-01-27T21:48:35.384Z,502.00
2023-01-27T21:49:35.397Z,502.00
2023-01-27T21:50:35.425Z,500.00
2023-01-27T21:51:35.477Z,502.00
2023-01-27T21:52:35.510Z,504.00
2023-01-27T21:53:35.535Z,502.00
2023-01-27T21:54:35.545Z,502.00
2023-01-27T21:55:35.589Z,503.00
2023-01-27T21:56:35.635Z,500.00
2023-01-27T21:57:35.739Z,505.00
2023-01-27T21:58:35.690Z,504.00
2023-01-27T21:59:35.787Z,502.00
2023-01-27T22:00:35.833Z,501.00
2023-01-27T22:01:35.845Z,502.00
2023-01-27T22:02:35.876Z,505.00
2023-01-27T22:03:35.918Z,505.00
2023-01-27T22:12:36.356Z,501.00
2023-01-27T22:13:36.387Z,504.00
2023-01-27T22:14:36.429Z,500.00
2023-01-27T22:15:36.471Z,503.00
2023-01-27T22:16:36.496Z,506.00
2023-01-27T22:17:36.529Z,502.00
2023-01-27T22:18:36.587Z,504.00
2023-01-27T22:19:36.631Z,501.00
2023-01-27T22:20:36.681Z,500.00
2023-01-27T22:21:36.714Z,504.00
2023-01-27T22:22:36.769Z,505.00
2023-01-27T22:23:36.825Z,503.00
2023-01-27T22:24:36.879Z,503.00
2023-01-27T22:25:36.915Z,501.00
2023-01-27T22:26:36.972Z,503.00
2023-01-27T22:27:37.002Z,501.00
2023-01-27T22:28:37.045Z,501.00
2023-01-27T22:29:37.062Z,501.00
2023-01-27T22:30:37.130Z,502.00
2023-01-27T22:31:37.121Z,502.00
2023-01-27T22:32:37.259Z,501.00
2023-01-27T22:33:37.217Z,500.00
2023-01-27T22:34:37.281Z,501.00
2023-01-27T22:35:37.309Z,501.00
2023-01-27T22:36:37.361Z,501.00
2023-01-27T22:37:37.387Z,502.00
2023-01-27T22:38:37.448Z,502.00
2023-01-27T22:39:37.446Z,501.00
2023-01-27T22:40:37.494Z,501.00
2023-01-27T22:41:37.537Z,501.00
2023-01-27T22:42:37.578Z,503.00
2023-01-27T22:43:37.637Z,501.00
2023-01-27T22:44:37.666Z,502.00
2023-01-27T22:45:37.720Z,502.00
2023-01-27T22:46:37.889Z,503.00
2023-01-27T22:48:37.856Z,501.00
2023-01-27T22:49:37.872Z,501.00
2023-01-27T22:50:37.913Z,500.00
2023-01-27T22:51:37.956Z,501.00
2023-01-27T22:52:38.028Z,503.00
2023-01-27T22:53:38.027Z,502.00
2023-01-27T22:54:38.057Z,501.00
2023-01-27T22:55:38.088Z,502.00
2023-01-27T22:56:38.112Z,502.00
2023-01-27T22:57:38.160Z,503.00
2023-01-27T22:58:38.219Z,502.00
2023-01-27T22:59:38.283Z,501.00
2023-01-27T23:00:38.309Z,500.00
2023-01-27T23:01:38.367Z,500.00
2023-01-27T23:02:38.390Z,503.00
2023-01-27T23:03:38.423Z,501.00
2023-01-27T23:04:38.433Z,501.00
2023-01-27T23:05:38.483Z,504.00
2023-01-27T23:06:38.574Z,502.00
2023-01-27T23:07:38.585Z,501.00
2023-01-27T23:08:38.649Z,503.00
2023-01-27T23:09:38.651Z,502.00
2023-01-27T23:10:38.670Z,502.00
2023-01-27T23:11:38.759Z,503.00
2023-01-27T23:12:38.783Z,503.00
2023-01-27T23:13:39.549Z,502.00
2023-01-27T23:14:38.855Z,501.00
2023-01-27T23:15:38.850Z,504.00
2023-01-27T23:16:38.909Z,503.00
2023-01-27T23:17:38.905Z,503.00
2023-01-27T23:18:38.982Z,504.00
2023-01-27T23:19:38.956Z,500.00
2023-01-27T23:20:38.990Z,500.00
2023-01-27T23:21:39.045Z,501.00
2023-01-27T23:22:39.067Z,501.00